createdAt,value
2023-01-13T00:01:46.871Z,2.00
2023-01-13T00:08:35.865Z,1.85
2023-01-13T00:11:43.896Z,1.79
2023-01-13T00:15:27.963Z,1.73
2023-01-13T00:18:30.602Z,1.70
2023-01-13T00:21:44.865Z,1.64
2023-01-13T00:28:39.881Z,1.59
2023-01-13T00:31:41.714Z,1.55
2023-01-13T00:35:03.515Z,1.48
2023-01-13T00:38:42.861Z,1.40
2023-01-13T00:41:44.570Z,1.40
2023-01-13T00:48:35.973Z,1.40
2023-01-13T00:51:52.886Z,1.39
2023-01-13T00:58:37.880Z,1.38
2023-01-13T01:01:47.082Z,1.45
2023-01-13T01:08:37.213Z,1.35
2023-01-13T01:11:51.878Z,1.37
2023-01-13T01:15:28.762Z,1.37
2023-01-13T01:18:47.897Z,1.37
2023-01-13T01:21:55.920Z,1.37
2023-01-13T01:25:25.883Z,1.33
2023-01-13T01:28:28.410Z,1.29
2023-01-13T01:31:42.924Z,0.99
2023-01-13T01:38:27.939Z,1.19
2023-01-13T01:41:43.959Z,1.22
2023-01-13T01:45:35.872Z,1.18
2023-01-13T01:48:41.215Z,0.89
2023-01-13T01:52:08.890Z,1.14
2023-01-13T01:55:31.944Z,1.13
2023-01-13T01:58:53.913Z,0.89
2023-01-13T02:02:03.128Z,1.11
2023-01-13T02:05:25.854Z,1.12
2023-01-13T02:08:36.866Z,1.10
2023-01-13T02:11:44.883Z,0.91
2023-01-13T02:15:33.913Z,0.85
2023-01-13T02:18:53.931Z,1.24
2023-01-13T02:22:25.886Z,1.27
2023-01-13T02:25:54.971Z,1.30
2023-01-13T02:29:33.327Z,1.38
2023-01-13T02:33:17.917Z,1.42
2023-01-13T02:36:43.956Z,1.41
2023-01-13T02:40:12.871Z,1.52
2023-01-13T02:43:31.917Z,1.46
2023-01-13T02:47:00.381Z,1.46
2023-01-13T02:50:19.867Z,1.48
2023-01-13T02:53:34.543Z,1.47
2023-01-13T02:56:48.871Z,1.45
2023-01-13T02:59:57.848Z,1.41
2023-01-13T03:03:14.928Z,1.40
2023-01-13T03:06:35.539Z,1.15
2023-01-13T03:09:59.860Z,1.39
2023-01-13T03:13:21.103Z,1.39
2023-01-13T03:17:05.893Z,1.34
2023-01-13T03:20:34.901Z,0.87
2023-01-13T03:28:02.658Z,1.38
2023-01-13T03:31:22.004Z,1.41
2023-01-13T03:35:25.579Z,1.39
2023-01-13T03:39:15.940Z,1.38
2023-01-13T03:42:23.269Z,1.45
2023-01-13T03:45:42.139Z,1.47
2023-01-13T03:52:45.942Z,1.51
2023-01-13T03:56:13.928Z,1.56
2023-01-13T03:59:26.835Z,1.61
2023-01-13T04:02:46.970Z,1.64
2023-01-13T04:06:10.929Z,1.69
2023-01-13T04:09:33.282Z,1.74
2023-01-13T04:12:58.919Z,1.77
2023-01-13T04:16:06.992Z,1.80
2023-01-13T04:19:15.702Z,1.82
2023-01-13T04:22:29.973Z,1.83
2023-01-13T04:25:32.266Z,1.85
2023-01-13T04:28:46.906Z,1.88
2023-01-13T04:31:48.806Z,1.71
2023-01-13T04:35:30.957Z,1.90
2023-01-13T04:42:30.934Z,1.94
2023-01-13T04:45:45.902Z,1.95
2023-01-13T04:48:54.517Z,1.93
2023-01-13T04:52:02.901Z,1.95
2023-01-13T04:55:26.746Z,1.53
2023-01-13T04:58:41.992Z,1.86
2023-01-13T05:01:50.039Z,1.86
2023-01-13T05:05:30.961Z,1.59
2023-01-13T05:08:45.922Z,1.76
2023-01-13T05:11:47.704Z,1.82
2023-01-13T05:15:32.992Z,1.77
2023-01-13T05:18:41.941Z,1.79
2023-01-13T05:21:56.903Z,1.84
2023-01-13T05:25:22.662Z,1.44
2023-01-13T05:28:41.923Z,1.77
2023-01-13T05:31:56.911Z,1.81
2023-01-13T05:38:57.928Z,1.85
2023-01-13T05:41:59.606Z,1.76
2023-01-13T05:45:25.683Z,1.73
2023-01-13T05:48:37.953Z,1.70
2023-01-13T05:55:46.953Z,1.78
2023-01-13T05:59:01.943Z,1.49
2023-01-13T06:02:16.933Z,1.78
2023-01-13T06:09:14.046Z,1.51
2023-01-13T06:12:22.577Z,1.79
2023-01-13T06:15:49.992Z,1.63
2023-01-13T06:19:04.993Z,1.75
2023-01-13T06:22:31.959Z,1.83
2023-01-13T06:25:44.517Z,1.49
2023-01-13T06:28:58.958Z,1.77
2023-01-13T06:32:11.995Z,1.71
2023-01-13T06:35:37.940Z,1.67
2023-01-13T06:39:05.131Z,1.66
2023-01-13T06:42:07.312Z,1.67
2023-01-13T07:24:14.049Z,2.29
2023-01-13T07:27:35.940Z,2.46
2023-01-13T07:35:22.992Z,2.56
2023-01-13T07:55:01.270Z,2.84
2023-01-13T08:06:52.940Z,3.19
2023-01-13T08:11:07.249Z,3.23
2023-01-13T08:14:29.081Z,3.25
2023-01-13T08:17:42.884Z,3.24
2023-01-13T08:21:11.360Z,3.23
2023-01-13T08:24:16.212Z,3.18
2023-01-13T08:35:45.805Z,3.19
2023-01-13T08:39:19.015Z,3.27
2023-01-13T08:42:30.065Z,3.23
2023-01-13T08:45:42.249Z,3.25
2023-01-13T09:01:51.192Z,3.09
2023-01-13T09:20:53.373Z,2.89
2023-01-13T09:28:28.122Z,2.85
2023-01-13T09:32:37.200Z,2.74
2023-01-13T09:48:12.252Z,3.03
2023-01-13T09:51:46.264Z,3.04
2023-01-13T09:55:12.561Z,2.81
2023-01-13T10:10:53.343Z,3.03
2023-01-13T10:38:09.085Z,3.05
2023-01-13T10:45:56.982Z,3.14
2023-01-13T10:53:34.098Z,2.99
2023-01-13T10:57:29.026Z,3.20
2023-01-13T11:19:38.044Z,3.50
2023-01-13T11:31:43.223Z,2.85
2023-01-13T11:35:49.427Z,3.39
2023-01-13T11:47:44.019Z,3.40
2023-01-13T12:06:57.139Z,3.58
2023-01-13T12:22:39.706Z,3.59
2023-01-13T12:26:18.031Z,3.65
2023-01-13T12:29:41.060Z,3.48
2023-01-13T12:32:55.004Z,3.51
2023-01-13T12:36:48.223Z,3.55
2023-01-13T12:52:22.139Z,3.78
2023-01-13T12:59:37.223Z,3.63
2023-01-13T13:03:34.947Z,3.93
2023-01-13T13:06:51.397Z,3.36
2023-01-13T13:10:31.606Z,3.94
2023-01-13T13:18:21.473Z,4.08
2023-01-13T13:22:17.174Z,4.07
2023-01-13T13:25:35.638Z,4.10
2023-01-13T13:29:05.209Z,4.11
2023-01-13T13:36:49.613Z,4.11
2023-01-13T13:40:04.039Z,4.17
2023-01-13T13:43:28.365Z,3.82
2023-01-13T13:46:51.780Z,4.21
2023-01-13T13:50:15.778Z,4.18
2023-01-13T13:57:40.024Z,4.30
2023-01-13T14:00:56.226Z,4.28
2023-01-13T14:12:23.236Z,4.51
2023-01-13T14:16:08.762Z,4.50
2023-01-13T14:19:52.518Z,4.42
2023-01-13T14:23:31.314Z,4.53
2023-01-13T14:26:50.796Z,4.53
2023-01-13T14:42:04.971Z,4.62
2023-01-13T14:52:29.977Z,4.53
2023-01-13T15:00:06.031Z,4.54
2023-01-13T15:07:38.970Z,4.02
2023-01-13T15:11:07.789Z,4.50
2023-01-13T15:19:00.944Z,4.43
2023-01-13T15:22:28.627Z,4.39
2023-01-13T15:25:52.977Z,3.90
2023-01-13T15:33:02.182Z,4.34
2023-01-13T15:36:14.124Z,4.31
2023-01-13T15:39:47.951Z,4.36
2023-01-13T15:42:59.613Z,4.36
2023-01-13T15:46:51.103Z,4.20
2023-01-13T15:50:03.588Z,4.38
2023-01-13T15:53:14.532Z,4.41
2023-01-13T15:56:31.991Z,3.97
2023-01-13T15:59:41.069Z,4.39
2023-01-13T16:02:57.015Z,4.46
2023-01-13T16:06:06.464Z,4.51
2023-01-13T16:09:28.256Z,4.48
2023-01-13T16:13:02.259Z,4.52
2023-01-13T16:16:40.988Z,4.51
2023-01-13T16:32:00.403Z,4.56
2023-01-13T16:36:10.401Z,4.57
2023-01-13T16:39:38.180Z,4.58
2023-01-13T16:46:52.267Z,4.55
2023-01-13T16:50:35.075Z,4.63
2023-01-13T16:57:42.317Z,4.63
2023-01-13T17:00:55.559Z,4.54
2023-01-13T17:11:59.568Z,4.52
2023-01-13T17:15:54.196Z,4.58
2023-01-13T17:18:58.448Z,4.14
2023-01-13T17:22:13.180Z,4.49
2023-01-13T17:25:46.077Z,4.50
2023-01-13T17:28:56.541Z,4.46
2023-01-13T17:32:13.318Z,4.52
2023-01-13T17:35:43.983Z,4.54
2023-01-13T17:39:08.366Z,4.55
2023-01-13T17:42:24.649Z,4.54
2023-01-13T17:45:56.517Z,4.60
2023-01-13T17:49:20.044Z,4.57
2023-01-13T17:52:31.206Z,4.40
2023-01-13T17:55:59.065Z,4.67
2023-01-13T18:06:42.004Z,4.80
2023-01-13T18:18:13.913Z,4.87
2023-01-13T18:21:39.064Z,4.91
2023-01-13T18:26:03.723Z,4.86
2023-01-13T18:29:28.158Z,5.00
2023-01-13T18:33:21.464Z,5.03
2023-01-13T18:59:49.145Z,5.07
2023-01-13T19:23:37.214Z,5.07
2023-01-13T19:32:33.472Z,5.13
2023-01-13T19:36:46.730Z,5.13
2023-01-13T19:40:48.208Z,5.13
2023-01-13T20:20:29.176Z,5.07
2023-01-13T20:48:19.239Z,4.82
2023-01-13T20:52:25.797Z,4.79
2023-01-13T20:56:00.801Z,4.79
2023-01-13T21:11:56.632Z,4.90
2023-01-13T21:15:57.559Z,4.89
2023-01-13T21:19:40.399Z,4.88
2023-01-13T21:23:30.431Z,4.84
2023-01-13T21:50:26.056Z,4.89
2023-01-13T21:53:28.188Z,4.88
2023-01-13T21:56:45.203Z,4.89
2023-01-13T22:00:02.126Z,4.84
2023-01-13T22:03:14.485Z,4.82
2023-01-13T22:06:46.155Z,4.88
2023-01-13T22:10:05.878Z,4.84
2023-01-13T22:13:24.176Z,4.88
2023-01-13T22:16:30.019Z,4.85
2023-01-13T22:20:05.204Z,4.89
2023-01-13T22:23:09.211Z,4.93
2023-01-13T22:26:29.305Z,4.95
2023-01-13T22:30:00.274Z,5.03
2023-01-13T22:33:09.103Z,5.02
2023-01-13T22:36:33.029Z,5.02
2023-01-13T22:39:43.737Z,5.09
2023-01-13T22:43:39.213Z,5.03
2023-01-13T22:47:01.613Z,5.13
2023-01-13T22:50:23.190Z,5.12
2023-01-13T22:53:25.235Z,5.13
2023-01-13T23:00:12.386Z,5.12
2023-01-13T23:03:32.358Z,5.23
2023-01-13T23:06:48.205Z,5.24
2023-01-13T23:09:50.445Z,5.20
2023-01-13T23:13:24.179Z,5.13
2023-01-13T23:16:43.201Z,5.07
2023-01-13T23:20:07.363Z,5.05
2023-01-13T23:23:22.255Z,4.88
2023-01-13T23:26:24.287Z,4.79
2023-01-13T23:29:39.187Z,4.66
2023-01-13T23:32:41.296Z,4.84
2023-01-13T23:36:08.114Z,4.76
2023-01-13T23:39:10.136Z,4.79
2023-01-13T23:42:28.156Z,4.80
2023-01-13T23:45:50.756Z,4.62
2023-01-13T23:49:15.738Z,4.78
2023-01-13T23:52:37.417Z,4.84
2023-01-13T23:59:55.494Z,4.75
